Time;durP1;ratioP1;P1;durP2;ratioP2;P2;SDS_P1;SDS_P2;PMS_P1;PMS_P2;Temp;Humidity;BMP_temperature;BMP_pressure;BME280_temperature;BME280_humidity;BME280_pressure;Samples;Min_cycle;Max_cycle;Signal;HPM_P1;HPM_P2
2022/02/09 00:02:01;;;;;;;9.80;6.10;;;6.10;74.10;;;;;;6226839;28;20475;-66
2022/02/09 00:05:21;;;;;;;13.93;6.33;;;6.10;74.30;;;;;;6244507;28;20471;-65
2022/02/09 00:08:24;;;;;;;9.80;7.17;;;6.10;74.30;;;;;;6250651;28;20467;-67
2022/02/09 00:11:36;;;;;;;7.53;5.60;;;6.20;74.70;;;;;;6250429;28;20462;-65
2022/02/09 00:14:49;;;;;;;12.23;6.33;;;6.20;74.80;;;;;;6226120;28;20484;-64
2022/02/09 00:18:00;;;;;;;8.60;6.20;;;6.30;75.20;;;;;;6226158;28;20456;-64
2022/02/09 00:21:33;;;;;;;8.20;6.13;;;6.20;75.30;;;;;;6226454;28;20424;-65
2022/02/09 00:24:56;;;;;;;8.67;6.20;;;6.20;75.70;;;;;;6226013;28;20484;-64
2022/02/09 00:41:52;;;;;;;10.83;6.23;;;6.20;77.60;;;;;;6248031;28;20467;-65
2022/02/09 01:39:01;;;;;;;9.30;5.13;;;6.30;79.30;;;;;;6254204;28;20467;-65
2022/02/09 01:55:33;;;;;;;6.93;5.10;;;6.40;81.20;;;;;;6253964;28;20471;-64
2022/02/09 01:58:37;;;;;;;8.27;6.00;;;6.30;81.80;;;;;;6228861;28;20479;-64
2022/02/09 02:01:40;;;;;;;8.10;5.40;;;6.10;82.10;;;;;;6228748;28;20483;-64
2022/02/09 02:04:45;;;;;;;6.37;4.77;;;6.20;82.20;;;;;;6244126;28;20865;-64
2022/02/09 02:07:52;;;;;;;6.83;4.87;;;6.30;82.40;;;;;;6253366;28;20462;-64
2022/02/09 02:11:04;;;;;;;4.90;4.40;;;6.30;82.60;;;;;;6252906;28;20470;-64
2022/02/09 02:14:18;;;;;;;8.77;4.13;;;6.40;82.60;;;;;;6232039;28;20484;-65
2022/02/09 02:17:28;;;;;;;4.13;3.60;;;6.50;82.60;;;;;;6228637;28;20967;-65
2022/02/09 02:20:40;;;;;;;3.30;2.90;;;6.60;82.60;;;;;;6230417;28;20479;-64
2022/02/09 02:24:05;;;;;;;3.00;2.57;;;6.80;82.80;;;;;;6228429;28;20538;-64
2022/02/09 02:34:28;;;;;;;1.33;1.23;;;7.60;80.80;;;;;;6193343;28;20476;-64
2022/02/09 02:38:07;;;;;;;1.53;1.00;;;7.80;80.30;;;;;;6228414;28;20468;-63
2022/02/09 02:58:48;;;;;;;1.00;0.60;;;8.80;75.00;;;;;;6248945;28;20493;-64
2022/02/09 03:08:41;;;;;;;0.50;0.50;;;9.00;73.60;;;;;;6251844;28;20819;-65
2022/02/09 03:15:24;;;;;;;3.03;0.80;;;9.00;74.00;;;;;;6251775;28;20915;-64
2022/02/09 03:18:59;;;;;;;0.90;0.63;;;9.10;73.40;;;;;;6252239;28;20502;-66
2022/02/09 03:22:17;;;;;;;0.70;0.70;;;9.10;73.30;;;;;;6251696;28;20471;-66
2022/02/09 03:25:48;;;;;;;0.70;0.63;;;9.10;72.80;;;;;;6252445;28;20471;-67
2022/02/09 03:42:37;;;;;;;2.10;0.90;;;9.30;70.50;;;;;;6227339;28;20530;-68
2022/02/09 03:49:27;;;;;;;1.00;0.90;;;9.10;71.10;;;;;;6203089;28;20471;-66
2022/02/09 03:56:25;;;;;;;1.17;0.93;;;9.00;71.90;;;;;;6179765;28;20485;-66
2022/02/09 03:59:30;;;;;;;0.80;0.50;;;8.90;72.20;;;;;;6251686;28;20486;-67
2022/02/09 04:02:33;;;;;;;1.17;0.83;;;8.80;71.20;;;;;;6252248;28;20497;-66
2022/02/09 04:05:38;;;;;;;1.10;1.00;;;8.90;71.40;;;;;;6251441;28;20478;-67
2022/02/09 04:08:47;;;;;;;1.63;1.33;;;8.90;71.90;;;;;;6250911;28;20475;-67
2022/02/09 04:11:53;;;;;;;3.70;2.47;;;8.80;72.40;;;;;;6248319;28;20483;-67
2022/02/09 04:15:03;;;;;;;2.47;1.30;;;8.70;73.10;;;;;;6226135;28;20486;-67
2022/02/09 04:18:17;;;;;;;1.27;1.17;;;8.50;73.70;;;;;;6225776;28;20433;-67
2022/02/09 04:38:05;;;;;;;0.87;0.87;;;8.00;76.20;;;;;;6191109;28;20506;-67
2022/02/09 04:44:46;;;;;;;1.70;1.20;;;7.90;77.50;;;;;;6225389;28;20479;-67
2022/02/09 04:47:56;;;;;;;1.73;1.07;;;7.90;77.80;;;;;;6225323;28;20475;-68
2022/02/09 04:51:03;;;;;;;1.20;1.10;;;7.90;78.00;;;;;;6225660;28;20459;-67
2022/02/09 04:54:24;;;;;;;1.23;1.13;;;7.80;78.00;;;;;;6225221;28;20500;-67
2022/02/09 04:57:33;;;;;;;1.00;0.80;;;7.80;78.20;;;;;;6240955;28;20483;-66
2022/02/09 05:00:45;;;;;;;1.00;1.00;;;7.80;78.20;;;;;;6250211;28;20553;-66
2022/02/09 05:24:06;;;;;;;2.00;1.20;;;8.00;77.10;;;;;;6224334;28;20460;-66
2022/02/09 05:27:19;;;;;;;1.10;1.00;;;8.00;77.20;;;;;;6225247;28;20772;-66
2022/02/09 05:30:22;;;;;;;1.20;1.10;;;8.00;77.30;;;;;;6230045;28;20460;-66
2022/02/09 05:33:25;;;;;;;1.23;1.13;;;8.10;77.00;;;;;;6233382;28;20494;-66
2022/02/09 05:36:28;;;;;;;1.47;1.00;;;8.10;76.90;;;;;;6225305;28;20550;-66
2022/02/09 05:39:32;;;;;;;1.87;1.53;;;8.20;76.80;;;;;;6220010;28;20792;-66
2022/02/09 05:42:36;;;;;;;2.30;1.30;;;8.10;76.90;;;;;;6225601;28;20484;-67
2022/02/09 05:45:56;;;;;;;3.03;1.90;;;8.10;77.00;;;;;;6226255;28;20475;-67
2022/02/09 05:52:20;;;;;;;1.87;1.77;;;8.00;76.90;;;;;;6224669;28;20480;-67
2022/02/09 05:55:43;;;;;;;2.80;1.43;;;8.10;76.80;;;;;;6224835;28;20480;-67
2022/02/09 05:58:51;;;;;;;4.83;1.90;;;8.10;76.80;;;;;;6227185;28;20486;-67
2022/02/09 06:01:54;;;;;;;1.97;1.80;;;8.00;76.60;;;;;;6228201;28;20483;-68
2022/02/09 06:04:57;;;;;;;2.63;2.10;;;8.00;76.90;;;;;;6230663;28;20471;-68
2022/02/09 06:08:00;;;;;;;4.50;3.80;;;7.90;76.90;;;;;;6230489;28;20471;-63
2022/02/09 06:11:12;;;;;;;3.57;3.27;;;7.80;77.00;;;;;;6228861;28;20468;-63
2022/02/09 06:14:41;;;;;;;6.23;3.07;;;7.80;77.30;;;;;;6250530;28;20483;-66
2022/02/09 06:21:05;;;;;;;3.97;2.93;;;7.60;77.90;;;;;;6255240;28;20454;-68
2022/02/09 06:24:08;;;;;;;8.47;3.87;;;7.40;78.00;;;;;;6255097;28;20467;-67
2022/02/09 06:27:12;;;;;;;8.73;2.93;;;7.30;78.20;;;;;;6254936;28;20447;-67
2022/02/09 06:30:16;;;;;;;3.80;3.20;;;7.30;78.60;;;;;;6253034;28;20466;-64
2022/02/09 06:33:19;;;;;;;9.20;3.70;;;7.20;79.10;;;;;;6252626;28;20805;-66
2022/02/09 06:36:24;;;;;;;8.50;4.13;;;7.10;79.30;;;;;;6252477;28;20800;-67
2022/02/09 06:39:29;;;;;;;12.80;4.50;;;7.10;79.60;;;;;;6252729;28;20474;-66
2022/02/09 06:42:34;;;;;;;12.33;4.10;;;7.00;80.30;;;;;;6252365;28;20545;-66
2022/02/09 06:45:41;;;;;;;5.70;3.67;;;7.00;80.50;;;;;;6248246;28;20479;-66
2022/02/09 06:48:44;;;;;;;7.60;4.33;;;7.00;81.00;;;;;;6252173;28;20486;-66
2022/02/09 06:51:47;;;;;;;4.80;3.20;;;7.00;81.30;;;;;;6252344;28;20800;-67
2022/02/09 06:55:08;;;;;;;6.47;4.83;;;7.00;81.60;;;;;;6252120;28;20470;-66
2022/02/09 06:58:18;;;;;;;9.70;6.57;;;7.00;81.60;;;;;;6252270;28;20471;-66
2022/02/09 07:01:22;;;;;;;10.90;8.30;;;7.00;81.80;;;;;;6251931;28;20808;-67
2022/02/09 07:04:26;;;;;;;9.73;4.93;;;6.90;82.10;;;;;;6252200;28;20486;-65
2022/02/09 07:07:32;;;;;;;8.53;6.57;;;6.90;81.70;;;;;;6249242;28;21029;-64
2022/02/09 07:10:36;;;;;;;10.10;6.20;;;7.00;81.80;;;;;;6238807;28;20482;-68
2022/02/09 07:13:40;;;;;;;9.13;6.50;;;7.00;82.20;;;;;;6242859;28;21374;-68
2022/02/09 07:16:45;;;;;;;11.60;6.27;;;7.00;82.60;;;;;;6238140;28;20483;-68
2022/02/09 07:19:54;;;;;;;10.27;7.20;;;7.00;82.50;;;;;;6227918;28;20479;-68
2022/02/09 07:23:00;;;;;;;13.73;6.67;;;7.00;82.90;;;;;;6234862;28;20483;-65
2022/02/09 07:26:11;;;;;;;12.93;4.70;;;6.90;82.90;;;;;;6238739;28;20472;-64
2022/02/09 07:29:15;;;;;;;5.97;3.97;;;6.90;82.90;;;;;;6239522;28;20481;-64
2022/02/09 07:32:21;;;;;;;5.33;4.30;;;6.90;83.10;;;;;;6232391;28;20773;-67
2022/02/09 07:35:25;;;;;;;7.20;4.97;;;7.10;83.10;;;;;;6245113;28;20480;-67
2022/02/09 07:38:28;;;;;;;8.57;5.27;;;7.10;83.10;;;;;;6239644;28;20478;-68
2022/02/09 07:41:31;;;;;;;7.97;5.60;;;7.10;83.10;;;;;;6236871;28;20521;-67
2022/02/09 07:44:46;;;;;;;10.93;5.30;;;7.10;83.10;;;;;;6240354;28;20462;-63
2022/02/09 07:48:11;;;;;;;9.33;6.03;;;7.10;83.10;;;;;;6234844;28;20491;-64
2022/02/09 07:51:36;;;;;;;8.50;5.40;;;7.20;83.10;;;;;;6237276;28;20482;-68
2022/02/09 07:54:39;;;;;;;12.93;6.73;;;7.20;82.90;;;;;;6252555;28;20486;-68
2022/02/09 07:57:42;;;;;;;8.20;5.07;;;7.30;82.80;;;;;;6251074;28;20471;-68
2022/02/09 08:00:45;;;;;;;5.40;4.83;;;7.30;82.90;;;;;;6251016;28;20962;-68
2022/02/09 08:03:50;;;;;;;8.87;5.53;;;7.30;82.70;;;;;;6251006;28;20478;-68
2022/02/09 08:06:54;;;;;;;10.10;5.30;;;7.50;82.60;;;;;;6253750;28;20989;-67
2022/02/09 08:09:59;;;;;;;12.90;5.00;;;7.50;82.70;;;;;;6251841;28;20471;-69
2022/02/09 08:26:56;;;;;;;7.23;3.47;;;8.00;80.80;;;;;;6236637;28;20479;-70
2022/02/09 08:30:07;;;;;;;5.73;3.47;;;8.10;80.50;;;;;;6237496;28;20819;-70
2022/02/09 08:33:18;;;;;;;5.73;3.60;;;8.30;80.20;;;;;;6241995;28;20462;-69
2022/02/09 08:36:22;;;;;;;4.67;2.67;;;8.40;80.20;;;;;;6251306;28;20467;-68
2022/02/09 08:39:26;;;;;;;4.40;2.50;;;8.50;80.00;;;;;;6251081;28;20478;-68
2022/02/09 08:42:29;;;;;;;3.80;2.30;;;8.60;79.40;;;;;;6251689;28;20490;-69
2022/02/09 08:45:32;;;;;;;2.33;2.13;;;8.70;78.60;;;;;;6252136;28;20471;-67
2022/02/09 08:48:36;;;;;;;2.77;1.87;;;8.90;77.80;;;;;;6250659;28;20479;-69
2022/02/09 08:51:41;;;;;;;2.10;1.90;;;9.00;77.10;;;;;;6251302;28;20483;-68
2022/02/09 08:54:46;;;;;;;1.70;1.60;;;9.10;76.30;;;;;;6251522;28;20482;-68
2022/02/09 08:57:50;;;;;;;3.07;2.40;;;9.30;75.10;;;;;;6250777;28;20502;-67
2022/02/09 09:01:08;;;;;;;6.50;2.13;;;9.40;75.00;;;;;;6250684;28;20466;-67
2022/02/09 09:04:19;;;;;;;6.73;2.23;;;9.40;74.30;;;;;;6249612;28;20482;-68
2022/02/09 09:07:28;;;;;;;3.53;2.33;;;9.50;73.90;;;;;;6250852;28;20463;-68
2022/02/09 09:10:40;;;;;;;6.87;2.43;;;9.70;73.20;;;;;;6250700;28;20490;-68
2022/02/09 10:04:34;;;;;;;2.00;1.80;;;31.90;25.40;;;;;;6253663;28;20692;-71
2022/02/09 10:32:14;;;;;;;2.67;2.03;;;43.10;13.70;;;;;;6228583;28;20236;-69
2022/02/09 10:35:28;;;;;;;2.65;1.77;;;44.10;13.50;;;;;;6228536;28;20239;-69
2022/02/09 10:38:34;;;;;;;5.97;2.38;;;45.10;13.10;;;;;;6227989;28;20243;-69
2022/02/09 10:41:49;;;;;;;3.58;1.67;;;45.60;12.90;;;;;;6228922;28;20228;-68
2022/02/09 10:44:54;;;;;;;1.77;1.30;;;46.00;12.00;;;;;;6231175;28;20703;-69
2022/02/09 10:47:59;;;;;;;3.38;1.63;;;46.40;11.60;;;;;;6230469;28;20207;-70
2022/02/09 10:51:27;;;;;;;5.68;2.00;;;46.40;11.40;;;;;;6228837;28;20217;-68
2022/02/09 10:54:31;;;;;;;3.25;1.80;;;46.60;11.50;;;;;;6227518;28;20252;-68
2022/02/09 10:57:34;;;;;;;3.05;1.60;;;47.10;11.10;;;;;;6243794;28;20247;-69
2022/02/09 11:00:43;;;;;;;4.00;1.85;;;47.40;10.90;;;;;;6243224;28;20679;-69
2022/02/09 11:03:51;;;;;;;6.28;1.40;;;47.70;10.80;;;;;;6251547;28;20247;-66
2022/02/09 11:06:54;;;;;;;3.72;1.50;;;47.50;10.50;;;;;;6252259;28;20228;-68
2022/02/09 11:10:04;;;;;;;5.15;2.00;;;47.60;10.50;;;;;;6252040;28;20378;-72
2022/02/09 11:13:09;;;;;;;2.53;1.63;;;47.80;10.40;;;;;;6251657;28;20644;-70
2022/02/09 11:16:13;;;;;;;4.32;1.20;;;47.60;10.20;;;;;;6251890;28;20236;-69
2022/02/09 11:19:20;;;;;;;3.67;1.40;;;48.00;10.20;;;;;;6251788;28;20227;-68
2022/02/09 11:22:27;;;;;;;2.90;1.90;;;48.30;10.00;;;;;;6251073;28;20599;-65
2022/02/09 11:25:32;;;;;;;3.47;1.50;;;48.00;10.00;;;;;;6251541;28;20224;-70
2022/02/09 11:28:40;;;;;;;3.80;2.00;;;47.80;10.10;;;;;;6252072;28;20547;-69
2022/02/09 11:32:15;;;;;;;3.55;1.40;;;48.30;9.90;;;;;;6253281;28;20243;-69
2022/02/09 11:35:38;;;;;;;6.93;1.77;;;48.50;9.80;;;;;;6254549;28;20559;-71
2022/02/09 11:38:46;;;;;;;1.65;1.23;;;49.10;9.80;;;;;;6254607;28;20570;-66
2022/02/09 11:42:27;;;;;;;1.65;1.30;;;49.20;9.60;;;;;;6251090;28;20236;-66
2022/02/09 11:46:01;;;;;;;2.50;1.23;;;48.50;9.60;;;;;;6249511;28;20228;-66
2022/02/09 12:09:22;;;;;;;2.13;1.52;;;49.30;8.90;;;;;;6226048;28;20216;-66
2022/02/09 12:12:41;;;;;;;5.88;2.03;;;49.40;9.00;;;;;;6232793;28;20670;-66
2022/02/09 12:16:30;;;;;;;4.13;1.20;;;49.50;8.90;;;;;;6252889;28;20228;-67
2022/02/09 12:19:33;;;;;;;2.75;1.50;;;48.50;9.30;;;;;;6249724;28;20255;-70
2022/02/09 12:22:47;;;;;;;2.88;1.10;;;49.10;9.10;;;;;;6250237;28;20236;-70
2022/02/09 12:25:52;;;;;;;2.40;1.20;;;49.00;9.10;;;;;;6249690;28;20692;-68
2022/02/09 12:29:00;;;;;;;5.22;1.42;;;48.10;9.20;;;;;;6250228;28;20227;-69
2022/02/09 12:32:24;;;;;;;6.47;1.88;;;48.30;9.20;;;;;;6249953;28;20239;-69
2022/02/09 12:35:27;;;;;;;4.05;1.45;;;48.60;9.20;;;;;;6250405;28;20310;-69
2022/02/09 12:38:31;;;;;;;6.57;1.40;;;48.60;9.10;;;;;;6249591;28;20243;-69
2022/02/09 12:41:36;;;;;;;2.70;1.45;;;48.50;9.10;;;;;;6246224;28;20240;-66
2022/02/09 12:44:39;;;;;;;3.10;1.30;;;48.60;9.00;;;;;;6241802;28;20247;-66
2022/02/09 12:47:44;;;;;;;3.55;1.40;;;48.10;9.00;;;;;;6243971;28;20246;-65
2022/02/09 12:50:50;;;;;;;4.50;1.30;;;48.00;9.20;;;;;;6248911;28;20734;-65
2022/02/09 12:53:53;;;;;;;1.92;1.70;;;47.50;9.10;;;;;;6249395;28;20235;-65
2022/02/09 12:56:58;;;;;;;7.13;1.52;;;46.10;9.70;;;;;;6250303;28;20254;-65
2022/02/09 13:00:01;;;;;;;1.80;1.27;;;45.70;9.90;;;;;;6250023;28;20201;-65
2022/02/09 13:03:07;;;;;;;4.35;1.77;;;44.60;10.30;;;;;;6254163;28;20238;-65
2022/02/09 13:06:11;;;;;;;3.88;1.85;;;44.30;10.30;;;;;;6241022;28;20192;-65
2022/02/09 13:09:18;;;;;;;1.88;1.45;;;45.30;10.30;;;;;;6249660;28;20243;-65
2022/02/09 13:12:25;;;;;;;3.50;1.50;;;43.50;10.40;;;;;;6251125;28;20694;-66
2022/02/09 13:15:32;;;;;;;2.88;1.25;;;44.00;10.70;;;;;;6254308;28;20707;-66
2022/02/09 13:18:55;;;;;;;2.20;1.27;;;44.30;10.40;;;;;;6254355;28;20236;-66
2022/02/09 14:13:47;;;;;;;1.95;1.75;;;35.80;14.50;;;;;;6177171;28;20261;-69
2022/02/09 14:47:46;;;;;;;2.23;1.70;;;20.00;26.30;;;;;;6251704;28;20750;-64
2022/02/09 14:54:17;;;;;;;2.30;1.73;;;19.10;27.40;;;;;;6251615;28;20230;-64
2022/02/09 14:57:24;;;;;;;4.30;1.80;;;18.70;28.90;;;;;;6252191;28;20522;-65
2022/02/09 15:00:28;;;;;;;2.33;1.70;;;18.60;29.00;;;;;;6252609;28;20229;-70
2022/02/09 15:07:13;;;;;;;2.93;1.70;;;18.30;28.40;;;;;;6245364;28;20686;-67
2022/02/09 15:10:22;;;;;;;2.90;1.27;;;18.10;28.50;;;;;;6251693;28;20241;-66
2022/02/09 15:13:35;;;;;;;4.00;1.47;;;17.90;28.10;;;;;;6246842;28;20256;-66
2022/02/09 15:16:48;;;;;;;4.00;1.70;;;17.60;28.20;;;;;;6250945;28;20569;-65
2022/02/09 15:20:25;;;;;;;1.40;1.30;;;17.50;28.80;;;;;;6254993;28;20572;-66
2022/02/09 15:23:29;;;;;;;2.13;1.70;;;17.40;29.30;;;;;;6251186;28;20477;-66
2022/02/09 15:26:35;;;;;;;4.23;1.60;;;17.30;29.60;;;;;;6251535;28;20472;-66
2022/02/09 15:29:38;;;;;;;3.80;1.80;;;17.30;29.70;;;;;;6250411;28;20471;-66
2022/02/09 15:32:45;;;;;;;2.63;1.83;;;17.20;30.00;;;;;;6250805;28;20296;-66
2022/02/09 15:35:53;;;;;;;3.73;2.10;;;17.10;30.30;;;;;;6250166;28;20783;-67
2022/02/09 15:38:56;;;;;;;3.13;1.70;;;17.10;30.70;;;;;;6249576;28;20489;-66
2022/02/09 15:42:09;;;;;;;2.73;2.03;;;16.90;31.60;;;;;;6251264;28;20470;-66
2022/02/09 16:22:08;;;;;;;17.00;4.60;;;15.30;35.00;;;;;;6247979;28;20550;-64
2022/02/09 16:25:22;;;;;;;21.20;5.30;;;15.30;35.30;;;;;;6250645;28;20850;-63
2022/02/09 16:38:50;;;;;;;14.50;6.17;;;14.90;36.60;;;;;;6238140;28;20567;-63
2022/02/09 16:45:15;;;;;;;8.00;4.27;;;14.70;37.50;;;;;;6239879;28;20464;-62
2022/02/09 16:48:19;;;;;;;15.37;4.60;;;14.60;37.70;;;;;;6241293;28;20942;-63
2022/02/09 16:51:24;;;;;;;6.80;3.30;;;14.50;38.00;;;;;;6236766;28;20471;-63
2022/02/09 16:54:34;;;;;;;8.80;3.00;;;14.40;38.40;;;;;;6235842;28;20480;-63
2022/02/09 17:21:10;;;;;;;9.90;4.20;;;13.30;42.00;;;;;;6225485;28;20766;-64
2022/02/09 17:24:14;;;;;;;8.90;4.80;;;13.30;42.60;;;;;;6225308;28;20425;-63
2022/02/09 17:27:19;;;;;;;7.83;5.23;;;13.10;42.90;;;;;;6230426;28;20466;-62
2022/02/09 17:30:55;;;;;;;8.40;5.80;;;12.90;43.30;;;;;;6238571;28;20983;-63
2022/02/09 17:34:36;;;;;;;10.20;6.60;;;12.80;43.70;;;;;;6241707;28;20479;-63
2022/02/09 17:38:02;;;;;;;8.83;5.93;;;12.70;44.10;;;;;;6242617;28;20484;-63
2022/02/09 17:55:22;;;;;;;8.40;6.67;;;12.10;45.90;;;;;;6225837;28;20472;-63
2022/02/09 17:58:09;;;;;;;9.07;5.97;;;12.00;46.30;;;;;;6244484;28;20566;-65
2022/02/09 18:01:14;;;;;;;13.47;6.47;;;12.00;46.80;;;;;;6254054;28;20470;-66
2022/02/09 18:04:20;;;;;;;12.37;6.53;;;11.90;47.30;;;;;;6234700;28;20483;-66
2022/02/09 18:07:25;;;;;;;9.57;6.70;;;11.70;47.80;;;;;;6229327;28;20483;-67
2022/02/09 18:10:45;;;;;;;13.30;6.03;;;11.60;47.50;;;;;;6229191;28;20479;-64
2022/02/09 18:30:43;;;;;;;11.63;7.80;;;11.10;49.30;;;;;;6228998;28;20484;-64
2022/02/09 18:34:06;;;;;;;9.87;7.63;;;10.90;49.50;;;;;;6277537;28;20470;-68
2022/02/09 18:44:18;;;;;;;10.67;8.03;;;10.80;50.60;;;;;;6271764;28;20498;-67
2022/02/09 18:47:47;;;;;;;11.40;8.07;;;10.70;50.60;;;;;;6253084;28;21013;-66
2022/02/09 19:04:40;;;;;;;15.03;8.33;;;10.30;52.20;;;;;;6239715;28;20839;-67
2022/02/09 19:08:10;;;;;;;10.63;8.37;;;10.20;52.50;;;;;;6257628;28;20471;-68
2022/02/09 19:14:46;;;;;;;13.10;8.03;;;10.00;53.00;;;;;;6254310;28;20971;-67
2022/02/09 19:17:57;;;;;;;15.33;8.33;;;9.90;54.30;;;;;;6253753;28;20471;-68
2022/02/09 19:31:13;;;;;;;11.07;7.80;;;9.70;55.10;;;;;;6238799;28;20482;-67
2022/02/09 19:48:02;;;;;;;19.70;11.20;;;9.40;56.50;;;;;;6180060;28;20475;-68
2022/02/09 19:51:15;;;;;;;14.50;11.23;;;9.30;56.90;;;;;;6252916;28;20448;-68
2022/02/09 19:54:39;;;;;;;15.60;10.23;;;9.30;57.10;;;;;;6253659;28;20471;-68
2022/02/09 19:57:42;;;;;;;16.13;9.53;;;9.20;57.30;;;;;;6252591;28;20490;-67
2022/02/09 20:00:45;;;;;;;11.53;8.87;;;9.20;57.50;;;;;;6251706;28;20470;-67
2022/02/09 20:03:49;;;;;;;11.97;9.10;;;9.10;57.80;;;;;;6253993;28;20506;-68
2022/02/09 20:06:54;;;;;;;10.40;9.10;;;9.10;58.00;;;;;;6252166;28;20810;-68
2022/02/09 20:09:59;;;;;;;8.37;7.43;;;9.10;58.10;;;;;;6252218;28;20853;-68
2022/02/09 20:13:02;;;;;;;11.90;8.60;;;9.00;58.40;;;;;;6252038;28;20476;-67
2022/02/09 20:16:05;;;;;;;8.50;7.50;;;8.90;58.50;;;;;;6251044;28;20536;-66
2022/02/09 20:19:08;;;;;;;12.87;8.57;;;8.90;58.70;;;;;;6241434;28;21041;-66
2022/02/09 20:22:14;;;;;;;12.37;8.70;;;8.90;58.70;;;;;;6226236;28;20479;-68
2022/02/09 20:25:19;;;;;;;12.03;9.73;;;8.90;59.00;;;;;;6227493;28;20464;-68
2022/02/09 20:28:23;;;;;;;11.23;7.50;;;8.80;59.00;;;;;;6226989;28;20487;-68
2022/02/09 20:31:30;;;;;;;8.60;7.80;;;8.80;59.20;;;;;;6222496;28;20483;-68
2022/02/09 20:34:40;;;;;;;12.50;8.00;;;8.70;59.40;;;;;;6227360;28;21002;-67
2022/02/09 20:37:48;;;;;;;11.60;8.60;;;8.60;59.60;;;;;;6230507;28;20487;-68
2022/02/09 20:40:54;;;;;;;10.87;9.30;;;8.60;59.90;;;;;;6231920;28;20538;-67
2022/02/09 20:44:05;;;;;;;12.83;8.23;;;8.60;60.00;;;;;;6232962;28;20479;-65
2022/02/09 20:47:10;;;;;;;10.67;7.10;;;8.50;60.50;;;;;;6252928;28;20486;-67
2022/02/09 20:50:13;;;;;;;8.63;7.83;;;8.40;60.50;;;;;;6250877;28;20989;-68
2022/02/09 20:53:19;;;;;;;8.73;7.77;;;8.40;61.00;;;;;;6250366;28;20482;-67
2022/02/09 20:56:22;;;;;;;12.20;9.03;;;8.30;61.10;;;;;;6249760;28;20471;-69
2022/02/09 20:59:27;;;;;;;8.50;7.70;;;8.30;61.60;;;;;;6250367;28;20475;-67
2022/02/09 21:02:42;;;;;;;12.57;8.00;;;8.20;61.80;;;;;;6250256;28;20494;-68
2022/02/09 21:05:54;;;;;;;9.83;8.20;;;8.10;62.50;;;;;;6251705;28;20486;-65
2022/02/09 21:09:06;;;;;;;9.73;7.23;;;8.10;62.90;;;;;;6250641;28;20447;-67
2022/02/09 21:12:21;;;;;;;9.27;7.10;;;8.00;62.90;;;;;;6251672;28;20478;-68
2022/02/09 21:15:38;;;;;;;12.43;8.47;;;8.00;63.20;;;;;;6253420;28;20471;-68
2022/02/09 21:55:52;;;;;;;7.90;6.03;;;7.40;66.70;;;;;;6262955;28;20462;-62
2022/02/09 21:59:15;;;;;;;8.63;6.43;;;7.40;66.80;;;;;;6270207;28;21012;-63
2022/02/09 22:19:31;;;;;;;11.53;8.20;;;7.00;68.60;;;;;;6271122;28;20474;-66
2022/02/09 22:22:43;;;;;;;8.20;6.70;;;7.00;69.40;;;;;;6273806;28;20468;-66
2022/02/09 22:29:10;;;;;;;6.93;6.07;;;6.90;69.90;;;;;;6268812;28;20463;-66
2022/02/09 22:32:56;;;;;;;5.90;5.30;;;6.90;70.10;;;;;;6269890;28;20971;-66
2022/02/09 22:46:00;;;;;;;7.40;6.03;;;6.70;71.10;;;;;;6239397;28;20472;-64
2022/02/09 22:49:17;;;;;;;6.47;5.50;;;6.70;71.40;;;;;;6253539;28;20782;-63
2022/02/09 22:55:45;;;;;;;10.70;6.73;;;6.60;71.70;;;;;;6261463;28;20478;-62
2022/02/09 22:58:48;;;;;;;8.07;6.83;;;6.60;72.00;;;;;;6254403;28;20472;-63
2022/02/09 23:01:56;;;;;;;7.83;5.87;;;6.60;72.20;;;;;;6239878;28;20480;-62
2022/02/09 23:05:25;;;;;;;6.13;5.23;;;6.50;72.10;;;;;;6276693;28;20961;-62
2022/02/09 23:08:52;;;;;;;7.87;5.57;;;6.50;72.70;;;;;;6277498;28;20772;-62
2022/02/09 23:12:10;;;;;;;7.50;5.70;;;6.50;73.10;;;;;;6266747;28;20479;-63
2022/02/09 23:15:26;;;;;;;11.20;6.50;;;6.40;73.40;;;;;;6254658;28;20449;-63
2022/02/09 23:19:26;;;;;;;6.60;5.30;;;6.30;73.60;;;;;;6255207;28;20472;-62
2022/02/09 23:56:14;;;;;;;7.20;4.80;;;5.90;76.20;;;;;;6201597;28;20473;-66
